sensor_id;sensor_type;location;lat;lon;timestamp;temperature;humidity
67093;SHT31;54011;50.772;7.730;2023-04-15T00:01:22;9.73;61.68
67093;SHT31;54011;50.772;7.730;2023-04-15T00:03:50;10.15;60.44
67093;SHT31;54011;50.772;7.730;2023-04-15T00:06:17;9.82;61.56
67093;SHT31;54011;50.772;7.730;2023-04-15T00:08:44;9.68;61.16
67093;SHT31;54011;50.772;7.730;2023-04-15T00:11:10;9.64;62.01
67093;SHT31;54011;50.772;7.730;2023-04-15T00:13:35;9.71;61.35
67093;SHT31;54011;50.772;7.730;2023-04-15T00:16:02;9.81;61.11
67093;SHT31;54011;50.772;7.730;2023-04-15T00:18:27;9.62;61.42
67093;SHT31;54011;50.772;7.730;2023-04-15T00:20:54;9.40;62.03
67093;SHT31;54011;50.772;7.730;2023-04-15T00:23:19;9.46;61.53
67093;SHT31;54011;50.772;7.730;2023-04-15T00:25:45;9.54;61.70
67093;SHT31;54011;50.772;7.730;2023-04-15T00:28:14;9.77;61.41
67093;SHT31;54011;50.772;7.730;2023-04-15T00:30:41;9.57;61.45
67093;SHT31;54011;50.772;7.730;2023-04-15T00:33:06;9.50;61.50
67093;SHT31;54011;50.772;7.730;2023-04-15T00:35:32;9.65;61.31
67093;SHT31;54011;50.772;7.730;2023-04-15T00:38:00;9.74;60.87
67093;SHT31;54011;50.772;7.730;2023-04-15T00:40:25;9.75;60.94
67093;SHT31;54011;50.772;7.730;2023-04-15T00:42:52;9.58;61.11
67093;SHT31;54011;50.772;7.730;2023-04-15T00:45:17;9.55;61.52
67093;SHT31;54011;50.772;7.730;2023-04-15T00:47:43;9.41;61.43
67093;SHT31;54011;50.772;7.730;2023-04-15T00:50:10;9.34;61.98
67093;SHT31;54011;50.772;7.730;2023-04-15T00:52:37;9.46;61.43
67093;SHT31;54011;50.772;7.730;2023-04-15T00:55:04;9.22;62.23
67093;SHT31;54011;50.772;7.730;2023-04-15T00:57:34;9.00;63.04
67093;SHT31;54011;50.772;7.730;2023-04-15T00:59:59;9.19;62.58
67093;SHT31;54011;50.772;7.730;2023-04-15T01:02:26;9.12;62.73
67093;SHT31;54011;50.772;7.730;2023-04-15T01:04:51;9.13;62.40
67093;SHT31;54011;50.772;7.730;2023-04-15T01:07:17;9.30;61.68
67093;SHT31;54011;50.772;7.730;2023-04-15T01:09:43;9.26;62.08
67093;SHT31;54011;50.772;7.730;2023-04-15T01:12:11;9.44;61.59
67093;SHT31;54011;50.772;7.730;2023-04-15T01:14:38;9.36;61.69
67093;SHT31;54011;50.772;7.730;2023-04-15T01:17:04;9.38;61.74
67093;SHT31;54011;50.772;7.730;2023-04-15T01:19:29;9.51;61.32
67093;SHT31;54011;50.772;7.730;2023-04-15T01:21:55;9.38;61.41
67093;SHT31;54011;50.772;7.730;2023-04-15T01:24:21;9.57;61.06
67093;SHT31;54011;50.772;7.730;2023-04-15T01:26:47;9.58;60.85
67093;SHT31;54011;50.772;7.730;2023-04-15T01:29:34;9.48;60.87
67093;SHT31;54011;50.772;7.730;2023-04-15T01:32:00;9.26;61.42
67093;SHT31;54011;50.772;7.730;2023-04-15T01:34:26;9.22;61.27
67093;SHT31;54011;50.772;7.730;2023-04-15T01:36:52;9.06;61.69
67093;SHT31;54011;50.772;7.730;2023-04-15T01:39:20;8.97;62.03
67093;SHT31;54011;50.772;7.730;2023-04-15T01:41:46;8.57;63.05
67093;SHT31;54011;50.772;7.730;2023-04-15T01:44:12;8.79;62.84
67093;SHT31;54011;50.772;7.730;2023-04-15T01:46:38;8.97;62.27
67093;SHT31;54011;50.772;7.730;2023-04-15T01:49:04;8.93;62.29
67093;SHT31;54011;50.772;7.730;2023-04-15T01:51:31;9.02;62.33
67093;SHT31;54011;50.772;7.730;2023-04-15T01:53:57;8.96;62.55
67093;SHT31;54011;50.772;7.730;2023-04-15T01:56:22;9.03;62.47
67093;SHT31;54011;50.772;7.730;2023-04-15T01:58:49;9.22;61.74
67093;SHT31;54011;50.772;7.730;2023-04-15T02:01:14;9.23;61.55
67093;SHT31;54011;50.772;7.730;2023-04-15T02:03:41;9.19;61.81
67093;SHT31;54011;50.772;7.730;2023-04-15T02:06:06;9.02;62.57
67093;SHT31;54011;50.772;7.730;2023-04-15T02:08:32;8.79;62.82
67093;SHT31;54011;50.772;7.730;2023-04-15T02:10:57;8.68;62.42
67093;SHT31;54011;50.772;7.730;2023-04-15T02:13:23;8.40;62.82
67093;SHT31;54011;50.772;7.730;2023-04-15T02:15:49;8.57;62.19
67093;SHT31;54011;50.772;7.730;2023-04-15T02:18:18;8.49;62.69
67093;SHT31;54011;50.772;7.730;2023-04-15T02:20:43;8.47;62.61
67093;SHT31;54011;50.772;7.730;2023-04-15T02:23:12;7.98;64.48
67093;SHT31;54011;50.772;7.730;2023-04-15T02:25:38;7.83;64.97
67093;SHT31;54011;50.772;7.730;2023-04-15T02:28:05;8.04;64.08
67093;SHT31;54011;50.772;7.730;2023-04-15T02:30:31;8.14;63.53
67093;SHT31;54011;50.772;7.730;2023-04-15T02:33:01;8.30;62.98
67093;SHT31;54011;50.772;7.730;2023-04-15T02:35:26;8.23;63.37
67093;SHT31;54011;50.772;7.730;2023-04-15T02:37:52;8.30;63.25
67093;SHT31;54011;50.772;7.730;2023-04-15T02:40:18;8.44;63.12
67093;SHT31;54011;50.772;7.730;2023-04-15T02:42:44;8.28;64.33
67093;SHT31;54011;50.772;7.730;2023-04-15T02:45:12;8.51;63.78
67093;SHT31;54011;50.772;7.730;2023-04-15T02:47:39;8.31;64.30
67093;SHT31;54011;50.772;7.730;2023-04-15T02:50:07;8.38;64.24
67093;SHT31;54011;50.772;7.730;2023-04-15T02:52:33;8.16;64.47
67093;SHT31;54011;50.772;7.730;2023-04-15T02:54:58;8.18;64.33
67093;SHT31;54011;50.772;7.730;2023-04-15T02:57:27;8.42;63.75
67093;SHT31;54011;50.772;7.730;2023-04-15T02:59:54;8.45;62.79
67093;SHT31;54011;50.772;7.730;2023-04-15T03:02:20;8.27;63.45
67093;SHT31;54011;50.772;7.730;2023-04-15T03:04:45;8.14;64.17
67093;SHT31;54011;50.772;7.730;2023-04-15T03:07:11;8.31;63.37
67093;SHT31;54011;50.772;7.730;2023-04-15T03:09:36;8.01;63.44
67093;SHT31;54011;50.772;7.730;2023-04-15T03:12:05;8.00;63.02
67093;SHT31;54011;50.772;7.730;2023-04-15T03:14:31;7.94;63.14
67093;SHT31;54011;50.772;7.730;2023-04-15T03:16:56;7.70;63.81
67093;SHT31;54011;50.772;7.730;2023-04-15T03:19:24;7.96;63.25
67093;SHT31;54011;50.772;7.730;2023-04-15T03:21:49;7.73;63.67
67093;SHT31;54011;50.772;7.730;2023-04-15T03:24:17;7.58;64.18
67093;SHT31;54011;50.772;7.730;2023-04-15T03:26:43;7.56;64.21
67093;SHT31;54011;50.772;7.730;2023-04-15T03:29:12;7.22;65.37
67093;SHT31;54011;50.772;7.730;2023-04-15T03:31:39;7.03;66.33
67093;SHT31;54011;50.772;7.730;2023-04-15T03:34:04;7.31;65.20
67093;SHT31;54011;50.772;7.730;2023-04-15T03:36:30;7.66;64.61
67093;SHT31;54011;50.772;7.730;2023-04-15T03:38:57;7.62;64.36
67093;SHT31;54011;50.772;7.730;2023-04-15T03:41:23;7.58;64.66
67093;SHT31;54011;50.772;7.730;2023-04-15T03:43:49;7.75;64.06
67093;SHT31;54011;50.772;7.730;2023-04-15T03:46:17;7.80;64.10
67093;SHT31;54011;50.772;7.730;2023-04-15T03:48:42;7.36;65.75
67093;SHT31;54011;50.772;7.730;2023-04-15T03:51:08;7.41;65.59
67093;SHT31;54011;50.772;7.730;2023-04-15T03:53:33;7.51;65.55
67093;SHT31;54011;50.772;7.730;2023-04-15T03:55:59;7.42;65.39
67093;SHT31;54011;50.772;7.730;2023-04-15T03:58:25;7.39;64.25
67093;SHT31;54011;50.772;7.730;2023-04-15T04:00:50;6.84;65.12
67093;SHT31;54011;50.772;7.730;2023-04-15T04:03:16;6.69;66.48
67093;SHT31;54011;50.772;7.730;2023-04-15T04:05:42;6.72;66.40
67093;SHT31;54011;50.772;7.730;2023-04-15T04:08:08;6.57;66.89
67093;SHT31;54011;50.772;7.730;2023-04-15T04:10:34;7.01;65.82
67093;SHT31;54011;50.772;7.730;2023-04-15T04:13:00;6.88;65.84
67093;SHT31;54011;50.772;7.730;2023-04-15T04:15:26;6.58;67.12
67093;SHT31;54011;50.772;7.730;2023-04-15T04:17:52;6.86;66.12
67093;SHT31;54011;50.772;7.730;2023-04-15T04:20:17;6.90;65.46
67093;SHT31;54011;50.772;7.730;2023-04-15T04:22:43;6.90;65.55
67093;SHT31;54011;50.772;7.730;2023-04-15T04:25:09;6.97;65.32
67093;SHT31;54011;50.772;7.730;2023-04-15T04:27:35;7.01;65.72
67093;SHT31;54011;50.772;7.730;2023-04-15T04:30:01;7.19;65.25
67093;SHT31;54011;50.772;7.730;2023-04-15T04:32:26;7.07;65.58
67093;SHT31;54011;50.772;7.730;2023-04-15T04:34:52;6.79;66.56
67093;SHT31;54011;50.772;7.730;2023-04-15T04:37:17;6.97;65.83
67093;SHT31;54011;50.772;7.730;2023-04-15T04:39:43;6.80;65.79
67093;SHT31;54011;50.772;7.730;2023-04-15T04:42:08;6.86;65.49
67093;SHT31;54011;50.772;7.730;2023-04-15T04:47:30;6.58;66.49
67093;SHT31;54011;50.772;7.730;2023-04-15T04:53:08;7.15;65.79
67093;SHT31;54011;50.772;7.730;2023-04-15T04:56:19;6.73;65.61
67093;SHT31;54011;50.772;7.730;2023-04-15T04:58:45;6.26;66.68
67093;SHT31;54011;50.772;7.730;2023-04-15T05:01:11;6.63;66.11
67093;SHT31;54011;50.772;7.730;2023-04-15T05:03:37;6.56;66.05
67093;SHT31;54011;50.772;7.730;2023-04-15T05:06:02;6.52;66.08
67093;SHT31;54011;50.772;7.730;2023-04-15T05:08:30;6.66;65.83
67093;SHT31;54011;50.772;7.730;2023-04-15T05:10:56;6.50;66.54
67093;SHT31;54011;50.772;7.730;2023-04-15T05:13:21;6.29;67.27
67093;SHT31;54011;50.772;7.730;2023-04-15T05:15:47;6.42;67.59
67093;SHT31;54011;50.772;7.730;2023-04-15T05:18:12;6.24;67.70
67093;SHT31;54011;50.772;7.730;2023-04-15T05:20:38;6.43;67.31
67093;SHT31;54011;50.772;7.730;2023-04-15T05:23:03;6.56;66.59
67093;SHT31;54011;50.772;7.730;2023-04-15T05:25:29;6.43;66.85
67093;SHT31;54011;50.772;7.730;2023-04-15T05:27:54;6.57;66.29
67093;SHT31;54011;50.772;7.730;2023-04-15T05:30:20;6.36;67.42
67093;SHT31;54011;50.772;7.730;2023-04-15T05:32:46;6.63;66.72
67093;SHT31;54011;50.772;7.730;2023-04-15T05:35:12;6.32;68.24
67093;SHT31;54011;50.772;7.730;2023-04-15T05:37:37;6.80;66.59
67093;SHT31;54011;50.772;7.730;2023-04-15T05:40:03;6.87;66.24
67093;SHT31;54011;50.772;7.730;2023-04-15T05:42:29;6.83;66.00
67093;SHT31;54011;50.772;7.730;2023-04-15T05:44:54;6.64;65.94
67093;SHT31;54011;50.772;7.730;2023-04-15T05:47:20;6.76;66.03
67093;SHT31;54011;50.772;7.730;2023-04-15T05:49:46;6.15;67.67
67093;SHT31;54011;50.772;7.730;2023-04-15T05:52:11;6.29;67.38
67093;SHT31;54011;50.772;7.730;2023-04-15T05:54:37;6.57;67.00
67093;SHT31;54011;50.772;7.730;2023-04-15T05:57:02;6.50;67.27
67093;SHT31;54011;50.772;7.730;2023-04-15T05:59:28;6.36;67.63
67093;SHT31;54011;50.772;7.730;2023-04-15T06:01:53;6.47;67.13
67093;SHT31;54011;50.772;7.730;2023-04-15T06:04:19;6.79;66.57
67093;SHT31;54011;50.772;7.730;2023-04-15T06:06:44;6.72;66.89
67093;SHT31;54011;50.772;7.730;2023-04-15T06:09:10;6.49;67.43
67093;SHT31;54011;50.772;7.730;2023-04-15T06:11:36;7.00;66.49
67093;SHT31;54011;50.772;7.730;2023-04-15T06:14:01;7.22;66.33
67093;SHT31;54011;50.772;7.730;2023-04-15T06:16:27;7.41;66.61
67093;SHT31;54011;50.772;7.730;2023-04-15T06:18:53;7.45;67.07
67093;SHT31;54011;50.772;7.730;2023-04-15T06:21:18;7.34;67.89
67093;SHT31;54011;50.772;7.730;2023-04-15T06:23:44;7.46;68.17
67093;SHT31;54011;50.772;7.730;2023-04-15T06:26:10;7.41;69.32
67093;SHT31;54011;50.772;7.730;2023-04-15T06:28:36;7.72;68.09
67093;SHT31;54011;50.772;7.730;2023-04-15T06:31:02;7.91;68.24
67093;SHT31;54011;50.772;7.730;2023-04-15T06:33:27;8.37;66.91
67093;SHT31;54011;50.772;7.730;2023-04-15T06:35:53;8.48;65.71
67093;SHT31;54011;50.772;7.730;2023-04-15T06:38:19;8.40;67.01
67093;SHT31;54011;50.772;7.730;2023-04-15T06:40:44;8.55;67.14
67093;SHT31;54011;50.772;7.730;2023-04-15T06:43:13;8.62;66.99
67093;SHT31;54011;50.772;7.730;2023-04-15T06:45:39;8.61;67.31
67093;SHT31;54011;50.772;7.730;2023-04-15T06:48:05;8.85;67.26
67093;SHT31;54011;50.772;7.730;2023-04-15T06:50:38;9.37;66.02
67093;SHT31;54011;50.772;7.730;2023-04-15T06:53:04;8.64;66.26
67093;SHT31;54011;50.772;7.730;2023-04-15T06:55:30;9.07;66.02
67093;SHT31;54011;50.772;7.730;2023-04-15T06:57:56;9.30;65.15
67093;SHT31;54011;50.772;7.730;2023-04-15T07:00:22;9.36;65.64
67093;SHT31;54011;50.772;7.730;2023-04-15T07:02:47;9.44;65.34
67093;SHT31;54011;50.772;7.730;2023-04-15T07:05:13;9.27;65.87
67093;SHT31;54011;50.772;7.730;2023-04-15T07:07:38;10.13;64.14
67093;SHT31;54011;50.772;7.730;2023-04-15T07:10:04;10.28;63.77
67093;SHT31;54011;50.772;7.730;2023-04-15T07:12:30;10.73;63.10
67093;SHT31;54011;50.772;7.730;2023-04-15T07:14:55;11.03;62.55
67093;SHT31;54011;50.772;7.730;2023-04-15T07:17:21;11.05;62.98
67093;SHT31;54011;50.772;7.730;2023-04-15T07:19:46;10.83;63.29
67093;SHT31;54011;50.772;7.730;2023-04-15T07:22:12;11.46;61.75
67093;SHT31;54011;50.772;7.730;2023-04-15T07:24:38;11.66;61.27
67093;SHT31;54011;50.772;7.730;2023-04-15T07:27:03;12.16;60.12
67093;SHT31;54011;50.772;7.730;2023-04-15T07:29:29;12.49;60.20
67093;SHT31;54011;50.772;7.730;2023-04-15T07:31:54;12.33;59.45
67093;SHT31;54011;50.772;7.730;2023-04-15T07:34:21;12.47;59.80
67093;SHT31;54011;50.772;7.730;2023-04-15T07:36:46;12.88;58.47
67093;SHT31;54011;50.772;7.730;2023-04-15T07:39:17;13.27;57.33
67093;SHT31;54011;50.772;7.730;2023-04-15T07:41:42;13.05;58.23
67093;SHT31;54011;50.772;7.730;2023-04-15T07:44:08;12.86;58.56
67093;SHT31;54011;50.772;7.730;2023-04-15T07:46:34;12.69;58.76
67093;SHT31;54011;50.772;7.730;2023-04-15T07:48:59;12.96;59.13
67093;SHT31;54011;50.772;7.730;2023-04-15T07:51:25;12.68;60.35
67093;SHT31;54011;50.772;7.730;2023-04-15T07:53:50;13.02;59.21
67093;SHT31;54011;50.772;7.730;2023-04-15T07:56:16;13.39;58.71
67093;SHT31;54011;50.772;7.730;2023-04-15T07:58:41;13.87;56.76
67093;SHT31;54011;50.772;7.730;2023-04-15T08:01:07;14.22;57.46
67093;SHT31;54011;50.772;7.730;2023-04-15T08:03:33;14.66;57.03
67093;SHT31;54011;50.772;7.730;2023-04-15T08:05:59;14.81;56.25
67093;SHT31;54011;50.772;7.730;2023-04-15T08:08:25;14.21;56.34
67093;SHT31;54011;50.772;7.730;2023-04-15T08:10:50;14.29;55.36
67093;SHT31;54011;50.772;7.730;2023-04-15T08:13:16;14.60;55.11
67093;SHT31;54011;50.772;7.730;2023-04-15T08:15:42;14.65;55.91
67093;SHT31;54011;50.772;7.730;2023-04-15T08:18:08;15.08;54.20
67093;SHT31;54011;50.772;7.730;2023-04-15T08:20:33;15.18;52.11
67093;SHT31;54011;50.772;7.730;2023-04-15T08:22:59;15.38;51.64
67093;SHT31;54011;50.772;7.730;2023-04-15T08:25:24;15.36;51.66
67093;SHT31;54011;50.772;7.730;2023-04-15T08:27:50;15.96;50.33
67093;SHT31;54011;50.772;7.730;2023-04-15T08:30:16;16.68;49.40
67093;SHT31;54011;50.772;7.730;2023-04-15T08:32:44;17.44;47.60
67093;SHT31;54011;50.772;7.730;2023-04-15T08:35:12;18.01;46.73
67093;SHT31;54011;50.772;7.730;2023-04-15T08:37:38;17.23;46.80
67093;SHT31;54011;50.772;7.730;2023-04-15T08:40:04;17.20;45.82
67093;SHT31;54011;50.772;7.730;2023-04-15T08:42:31;17.63;45.54
67093;SHT31;54011;50.772;7.730;2023-04-15T08:44:59;17.51;45.74
67093;SHT31;54011;50.772;7.730;2023-04-15T08:47:29;16.58;45.89
67093;SHT31;54011;50.772;7.730;2023-04-15T08:49:56;17.56;46.12
67093;SHT31;54011;50.772;7.730;2023-04-15T08:52:24;17.50;44.79
67093;SHT31;54011;50.772;7.730;2023-04-15T08:54:53;17.64;45.54
67093;SHT31;54011;50.772;7.730;2023-04-15T08:57:25;16.96;46.24
67093;SHT31;54011;50.772;7.730;2023-04-15T08:59:52;17.13;47.04
67093;SHT31;54011;50.772;7.730;2023-04-15T09:02:17;17.12;47.40
67093;SHT31;54011;50.772;7.730;2023-04-15T09:04:43;16.60;47.39
67093;SHT31;54011;50.772;7.730;2023-04-15T09:07:09;16.89;47.27
67093;SHT31;54011;50.772;7.730;2023-04-15T09:09:34;17.19;47.97
67093;SHT31;54011;50.772;7.730;2023-04-15T09:12:01;17.20;47.55
67093;SHT31;54011;50.772;7.730;2023-04-15T09:14:28;16.43;48.70
67093;SHT31;54011;50.772;7.730;2023-04-15T09:17:01;17.02;48.24
67093;SHT31;54011;50.772;7.730;2023-04-15T09:19:28;16.37;49.11
67093;SHT31;54011;50.772;7.730;2023-04-15T09:21:55;17.29;47.34
67093;SHT31;54011;50.772;7.730;2023-04-15T09:24:24;16.38;48.72
67093;SHT31;54011;50.772;7.730;2023-04-15T09:26:53;16.63;48.90
67093;SHT31;54011;50.772;7.730;2023-04-15T09:29:23;17.47;48.02
67093;SHT31;54011;50.772;7.730;2023-04-15T09:31:50;17.60;47.56
67093;SHT31;54011;50.772;7.730;2023-04-15T09:34:15;17.39;47.48
67093;SHT31;54011;50.772;7.730;2023-04-15T09:39:16;17.56;47.29
67093;SHT31;54011;50.772;7.730;2023-04-15T09:42:09;17.91;47.19
67093;SHT31;54011;50.772;7.730;2023-04-15T09:44:35;17.88;46.65
67093;SHT31;54011;50.772;7.730;2023-04-15T09:47:01;17.91;46.43
67093;SHT31;54011;50.772;7.730;2023-04-15T09:49:27;19.04;45.38
67093;SHT31;54011;50.772;7.730;2023-04-15T09:51:58;18.34;45.93
67093;SHT31;54011;50.772;7.730;2023-04-15T09:54:24;18.41;46.32
67093;SHT31;54011;50.772;7.730;2023-04-15T09:56:49;17.77;46.95
67093;SHT31;54011;50.772;7.730;2023-04-15T09:59:15;18.34;45.91
67093;SHT31;54011;50.772;7.730;2023-04-15T10:01:41;18.32;46.32
67093;SHT31;54011;50.772;7.730;2023-04-15T10:04:07;17.88;46.87
67093;SHT31;54011;50.772;7.730;2023-04-15T10:06:33;18.12;45.97
67093;SHT31;54011;50.772;7.730;2023-04-15T10:09:00;18.09;46.74
67093;SHT31;54011;50.772;7.730;2023-04-15T10:11:28;18.60;46.14
67093;SHT31;54011;50.772;7.730;2023-04-15T10:13:55;19.11;45.04
67093;SHT31;54011;50.772;7.730;2023-04-15T10:16:22;19.51;43.79
67093;SHT31;54011;50.772;7.730;2023-04-15T10:18:57;19.13;44.48
67093;SHT31;54011;50.772;7.730;2023-04-15T10:21:26;19.24;44.57
67093;SHT31;54011;50.772;7.730;2023-04-15T10:23:52;19.21;43.89
67093;SHT31;54011;50.772;7.730;2023-04-15T10:26:18;18.96;44.88
67093;SHT31;54011;50.772;7.730;2023-04-15T10:28:44;18.73;46.70
67093;SHT31;54011;50.772;7.730;2023-04-15T10:31:13;19.32;44.29
67093;SHT31;54011;50.772;7.730;2023-04-15T10:33:40;19.10;45.35
67093;SHT31;54011;50.772;7.730;2023-04-15T10:36:07;19.03;44.87
67093;SHT31;54011;50.772;7.730;2023-04-15T10:38:43;19.68;43.81
67093;SHT31;54011;50.772;7.730;2023-04-15T10:41:14;19.39;42.60
67093;SHT31;54011;50.772;7.730;2023-04-15T10:43:50;19.32;43.85
67093;SHT31;54011;50.772;7.730;2023-04-15T10:46:26;20.48;42.90
67093;SHT31;54011;50.772;7.730;2023-04-15T10:49:06;19.72;42.86
67093;SHT31;54011;50.772;7.730;2023-04-15T10:51:32;19.79;44.17
67093;SHT31;54011;50.772;7.730;2023-04-15T10:53:58;19.34;43.30
67093;SHT31;54011;50.772;7.730;2023-04-15T10:56:28;18.65;45.87
67093;SHT31;54011;50.772;7.730;2023-04-15T10:58:54;18.22;46.29
67093;SHT31;54011;50.772;7.730;2023-04-15T11:01:21;18.41;46.44
67093;SHT31;54011;50.772;7.730;2023-04-15T11:03:49;18.22;46.36
67093;SHT31;54011;50.772;7.730;2023-04-15T11:06:16;17.95;46.57
67093;SHT31;54011;50.772;7.730;2023-04-15T11:08:56;18.31;47.01
67093;SHT31;54011;50.772;7.730;2023-04-15T11:11:50;18.56;46.59
67093;SHT31;54011;50.772;7.730;2023-04-15T11:14:14;18.52;46.49
67093;SHT31;54011;50.772;7.730;2023-04-15T11:16:43;17.85;47.50
67093;SHT31;54011;50.772;7.730;2023-04-15T11:19:12;17.83;47.39
67093;SHT31;54011;50.772;7.730;2023-04-15T11:21:37;17.93;47.85
67093;SHT31;54011;50.772;7.730;2023-04-15T11:24:03;17.97;48.10
67093;SHT31;54011;50.772;7.730;2023-04-15T11:26:29;17.91;47.09
67093;SHT31;54011;50.772;7.730;2023-04-15T11:28:55;18.16;47.55
67093;SHT31;54011;50.772;7.730;2023-04-15T11:31:21;17.60;48.90
67093;SHT31;54011;50.772;7.730;2023-04-15T11:36:19;17.49;49.30
67093;SHT31;54011;50.772;7.730;2023-04-15T11:38:46;17.71;49.20
67093;SHT31;54011;50.772;7.730;2023-04-15T11:41:19;17.29;49.76
67093;SHT31;54011;50.772;7.730;2023-04-15T11:43:45;16.92;50.92
67093;SHT31;54011;50.772;7.730;2023-04-15T11:46:10;16.67;51.73
67093;SHT31;54011;50.772;7.730;2023-04-15T11:48:42;16.69;51.42
67093;SHT31;54011;50.772;7.730;2023-04-15T11:51:08;17.35;50.40
67093;SHT31;54011;50.772;7.730;2023-04-15T11:53:49;17.37;50.40
67093;SHT31;54011;50.772;7.730;2023-04-15T11:56:23;16.72;51.99
67093;SHT31;54011;50.772;7.730;2023-04-15T11:58:53;16.85;51.92
67093;SHT31;54011;50.772;7.730;2023-04-15T12:01:38;17.02;51.81
67093;SHT31;54011;50.772;7.730;2023-04-15T12:04:16;16.81;52.43
67093;SHT31;54011;50.772;7.730;2023-04-15T12:06:43;16.88;51.99
67093;SHT31;54011;50.772;7.730;2023-04-15T12:09:11;16.78;52.44
67093;SHT31;54011;50.772;7.730;2023-04-15T12:14:11;15.36;56.27
67093;SHT31;54011;50.772;7.730;2023-04-15T12:16:47;16.33;54.62
67093;SHT31;54011;50.772;7.730;2023-04-15T12:19:15;16.65;53.95
67093;SHT31;54011;50.772;7.730;2023-04-15T12:21:44;15.62;55.36
67093;SHT31;54011;50.772;7.730;2023-04-15T12:24:11;16.00;56.53
67093;SHT31;54011;50.772;7.730;2023-04-15T12:26:48;16.24;56.28
67093;SHT31;54011;50.772;7.730;2023-04-15T12:29:15;16.24;57.29
67093;SHT31;54011;50.772;7.730;2023-04-15T12:31:52;16.21;56.86
67093;SHT31;54011;50.772;7.730;2023-04-15T12:34:48;16.00;57.97
67093;SHT31;54011;50.772;7.730;2023-04-15T12:37:14;15.32;60.28
67093;SHT31;54011;50.772;7.730;2023-04-15T12:39:42;16.02;59.01
67093;SHT31;54011;50.772;7.730;2023-04-15T12:42:08;15.90;59.96
67093;SHT31;54011;50.772;7.730;2023-04-15T12:44:35;16.13;59.30
67093;SHT31;54011;50.772;7.730;2023-04-15T12:47:01;16.38;59.63
67093;SHT31;54011;50.772;7.730;2023-04-15T12:49:27;15.86;59.90
67093;SHT31;54011;50.772;7.730;2023-04-15T12:51:55;15.83;61.35
67093;SHT31;54011;50.772;7.730;2023-04-15T12:54:21;15.76;61.08
67093;SHT31;54011;50.772;7.730;2023-04-15T12:56:48;15.78;61.76
67093;SHT31;54011;50.772;7.730;2023-04-15T12:59:14;15.31;61.95
67093;SHT31;54011;50.772;7.730;2023-04-15T13:01:40;15.21;62.53
67093;SHT31;54011;50.772;7.730;2023-04-15T13:04:06;15.72;63.17
67093;SHT31;54011;50.772;7.730;2023-04-15T13:06:32;15.75;61.73
67093;SHT31;54011;50.772;7.730;2023-04-15T13:08:58;16.16;62.51
67093;SHT31;54011;50.772;7.730;2023-04-15T13:11:26;16.21;62.39
67093;SHT31;54011;50.772;7.730;2023-04-15T13:13:53;15.23;64.03
67093;SHT31;54011;50.772;7.730;2023-04-15T13:16:19;15.23;64.35
67093;SHT31;54011;50.772;7.730;2023-04-15T13:18:47;14.88;64.63
67093;SHT31;54011;50.772;7.730;2023-04-15T13:21:13;15.23;64.41
67093;SHT31;54011;50.772;7.730;2023-04-15T13:23:40;15.63;63.65
67093;SHT31;54011;50.772;7.730;2023-04-15T13:26:06;16.12;63.21
67093;SHT31;54011;50.772;7.730;2023-04-15T13:28:32;15.52;64.86
67093;SHT31;54011;50.772;7.730;2023-04-15T13:30:58;15.66;64.14
67093;SHT31;54011;50.772;7.730;2023-04-15T13:33:25;15.25;65.82
67093;SHT31;54011;50.772;7.730;2023-04-15T13:35:50;14.79;66.16
67093;SHT31;54011;50.772;7.730;2023-04-15T13:38:16;14.93;65.48
67093;SHT31;54011;50.772;7.730;2023-04-15T13:40:41;15.81;64.66
67093;SHT31;54011;50.772;7.730;2023-04-15T13:43:07;15.75;64.26
67093;SHT31;54011;50.772;7.730;2023-04-15T13:45:33;14.93;64.88
67093;SHT31;54011;50.772;7.730;2023-04-15T13:47:58;14.49;66.68
67093;SHT31;54011;50.772;7.730;2023-04-15T13:50:24;14.39;67.17
67093;SHT31;54011;50.772;7.730;2023-04-15T13:52:50;14.97;65.87
67093;SHT31;54011;50.772;7.730;2023-04-15T13:55:15;15.24;65.89
67093;SHT31;54011;50.772;7.730;2023-04-15T13:57:41;15.07;67.06
67093;SHT31;54011;50.772;7.730;2023-04-15T14:00:07;15.10;65.95
67093;SHT31;54011;50.772;7.730;2023-04-15T14:02:33;15.15;66.06
67093;SHT31;54011;50.772;7.730;2023-04-15T14:04:59;14.96;67.60
67093;SHT31;54011;50.772;7.730;2023-04-15T14:07:28;15.48;66.07
67093;SHT31;54011;50.772;7.730;2023-04-15T14:09:54;15.93;65.17
67093;SHT31;54011;50.772;7.730;2023-04-15T14:12:20;15.25;66.08
67093;SHT31;54011;50.772;7.730;2023-04-15T14:14:45;15.28;67.42
67093;SHT31;54011;50.772;7.730;2023-04-15T14:17:11;15.25;66.58
67093;SHT31;54011;50.772;7.730;2023-04-15T14:19:37;15.14;65.68
67093;SHT31;54011;50.772;7.730;2023-04-15T14:22:02;14.63;67.30
67093;SHT31;54011;50.772;7.730;2023-04-15T14:24:28;14.87;67.44
67093;SHT31;54011;50.772;7.730;2023-04-15T14:26:54;15.38;66.40
67093;SHT31;54011;50.772;7.730;2023-04-15T14:29:21;15.07;67.26
67093;SHT31;54011;50.772;7.730;2023-04-15T14:31:46;14.12;68.86
67093;SHT31;54011;50.772;7.730;2023-04-15T14:34:13;15.10;67.21
67093;SHT31;54011;50.772;7.730;2023-04-15T14:36:38;15.00;67.69
67093;SHT31;54011;50.772;7.730;2023-04-15T14:39:04;14.87;68.44
67093;SHT31;54011;50.772;7.730;2023-04-15T14:41:29;15.18;67.26
67093;SHT31;54011;50.772;7.730;2023-04-15T14:43:55;14.77;68.06
67093;SHT31;54011;50.772;7.730;2023-04-15T14:46:21;14.55;67.70
67093;SHT31;54011;50.772;7.730;2023-04-15T14:48:47;14.67;67.90
67093;SHT31;54011;50.772;7.730;2023-04-15T14:51:13;14.49;68.33
67093;SHT31;54011;50.772;7.730;2023-04-15T14:53:38;13.79;67.82
67093;SHT31;54011;50.772;7.730;2023-04-15T14:56:04;15.38;67.51
67093;SHT31;54011;50.772;7.730;2023-04-15T14:58:30;14.87;66.98
67093;SHT31;54011;50.772;7.730;2023-04-15T15:00:57;15.11;67.47
67093;SHT31;54011;50.772;7.730;2023-04-15T15:03:22;15.00;67.18
67093;SHT31;54011;50.772;7.730;2023-04-15T15:05:48;15.00;67.32
67093;SHT31;54011;50.772;7.730;2023-04-15T15:08:13;14.29;68.80
67093;SHT31;54011;50.772;7.730;2023-04-15T15:10:39;14.53;67.74
67093;SHT31;54011;50.772;7.730;2023-04-15T15:13:07;14.33;68.52
67093;SHT31;54011;50.772;7.730;2023-04-15T15:15:35;14.53;67.66
67093;SHT31;54011;50.772;7.730;2023-04-15T15:18:01;14.94;66.74
67093;SHT31;54011;50.772;7.730;2023-04-15T15:20:27;14.42;67.70
67093;SHT31;54011;50.772;7.730;2023-04-15T15:22:53;14.16;68.93
67093;SHT31;54011;50.772;7.730;2023-04-15T15:25:18;14.56;68.02
67093;SHT31;54011;50.772;7.730;2023-04-15T15:27:44;14.37;67.99
67093;SHT31;54011;50.772;7.730;2023-04-15T15:30:10;14.62;67.34
67093;SHT31;54011;50.772;7.730;2023-04-15T15:32:39;14.76;67.13
67093;SHT31;54011;50.772;7.730;2023-04-15T15:35:05;15.10;66.81
67093;SHT31;54011;50.772;7.730;2023-04-15T15:37:32;14.63;66.94
67093;SHT31;54011;50.772;7.730;2023-04-15T15:39:58;14.60;67.01
67093;SHT31;54011;50.772;7.730;2023-04-15T15:42:23;14.77;66.84
67093;SHT31;54011;50.772;7.730;2023-04-15T15:44:49;14.97;66.66
67093;SHT31;54011;50.772;7.730;2023-04-15T15:47:17;14.52;67.66
67093;SHT31;54011;50.772;7.730;2023-04-15T15:49:43;14.79;67.12